createdAt,value
2019-02-27T00:00:16.822Z,0.00
2019-02-27T00:01:17.537Z,0.00
2019-02-27T00:02:16.826Z,0.00
2019-02-27T00:03:16.788Z,0.00
2019-02-27T00:04:16.777Z,0.00
2019-02-27T00:05:16.767Z,0.00
2019-02-27T00:06:16.757Z,0.00
2019-02-27T00:07:20.809Z,0.00
2019-02-27T00:08:16.744Z,0.00
2019-02-27T00:09:16.729Z,0.00
2019-02-27T00:10:16.714Z,0.00
2019-02-27T00:11:16.703Z,0.00
2019-02-27T00:12:16.996Z,0.00
2019-02-27T00:13:16.684Z,0.00
2019-02-27T00:14:16.688Z,0.00
2019-02-27T00:15:16.666Z,0.00
2019-02-27T00:16:16.651Z,0.00
2019-02-27T00:17:18.018Z,0.00
2019-02-27T00:18:16.631Z,0.00
2019-02-27T00:19:16.619Z,0.00
2019-02-27T00:20:16.617Z,0.00
2019-02-27T00:21:16.601Z,0.00
2019-02-27T00:22:17.647Z,0.00
2019-02-27T00:23:16.577Z,0.00
2019-02-27T00:24:16.565Z,0.00
2019-02-27T00:25:16.553Z,0.00
2019-02-27T00:26:16.558Z,0.00
2019-02-27T00:27:16.534Z,0.00
2019-02-27T00:28:16.522Z,0.00
2019-02-27T00:29:16.513Z,0.00
2019-02-27T00:30:16.507Z,0.00
2019-02-27T00:31:16.490Z,0.00
2019-02-27T00:32:18.490Z,0.00
2019-02-27T00:33:16.469Z,0.00
2019-02-27T00:34:16.461Z,0.00
2019-02-27T00:35:16.456Z,0.00
2019-02-27T00:36:16.437Z,0.00
2019-02-27T00:37:18.815Z,0.00
2019-02-27T00:38:16.425Z,0.00
2019-02-27T00:39:16.407Z,0.00
2019-02-27T00:40:16.396Z,0.00
2019-02-27T00:41:16.383Z,0.00
2019-02-27T00:42:19.579Z,0.00
2019-02-27T00:43:16.360Z,0.00
2019-02-27T00:44:16.361Z,0.00
2019-02-27T00:45:16.338Z,0.00
2019-02-27T00:46:16.329Z,0.00
2019-02-27T00:47:17.060Z,0.00
2019-02-27T00:48:16.310Z,0.00
2019-02-27T00:49:16.296Z,0.00
2019-02-27T00:50:16.294Z,0.00
2019-02-27T00:51:16.274Z,0.00
2019-02-27T00:52:18.229Z,0.00
2019-02-27T00:53:16.251Z,0.00
2019-02-27T00:54:16.242Z,0.00
2019-02-27T00:55:16.231Z,0.00
2019-02-27T00:56:16.229Z,0.00
2019-02-27T00:57:20.620Z,0.00
2019-02-27T00:58:17.197Z,0.00
2019-02-27T00:59:16.191Z,0.00
2019-02-27T01:00:16.176Z,0.00
2019-02-27T01:01:16.176Z,0.00
2019-02-27T01:02:19.970Z,0.00
2019-02-27T01:03:16.145Z,0.00
2019-02-27T01:04:16.138Z,0.00
2019-02-27T01:05:16.142Z,0.00
2019-02-27T01:06:16.112Z,0.00
2019-02-27T01:07:20.250Z,0.00
2019-02-27T01:08:16.103Z,0.00
2019-02-27T01:09:16.082Z,0.00
2019-02-27T01:10:16.070Z,0.00
2019-02-27T01:11:18.421Z,0.00
2019-02-27T01:12:16.053Z,0.00
2019-02-27T01:13:16.054Z,0.00
2019-02-27T01:14:16.044Z,0.00
2019-02-27T01:15:16.019Z,0.00
2019-02-27T01:16:17.266Z,0.00
2019-02-27T01:36:37.277Z,0.00
2019-02-27T01:36:45.449Z,0.00
2019-02-27T01:37:45.434Z,0.00
2019-02-27T01:38:45.425Z,0.00
2019-02-27T01:39:45.435Z,0.00
2019-02-27T01:40:45.401Z,0.00
2019-02-27T01:41:45.407Z,0.00
2019-02-27T01:42:45.389Z,0.00
2019-02-27T01:43:45.371Z,0.00
2019-02-27T01:44:46.682Z,0.00
2019-02-27T01:45:45.349Z,0.00
2019-02-27T01:46:45.341Z,0.00
2019-02-27T01:58:17.765Z,0.00
2019-02-27T01:59:11.260Z,0.00
2019-02-27T02:00:11.235Z,0.00
2019-02-27T02:01:11.225Z,0.00
2019-02-27T02:02:11.213Z,0.00
2019-02-27T02:03:33.308Z,0.00
2019-02-27T02:04:11.194Z,0.00
2019-02-27T02:05:11.195Z,0.00
2019-02-27T02:06:11.187Z,0.00
2019-02-27T02:07:11.164Z,0.00
2019-02-27T02:08:14.020Z,0.00
2019-02-27T02:09:11.169Z,0.00
2019-02-27T02:10:11.131Z,0.00
2019-02-27T02:11:11.174Z,0.00
2019-02-27T02:12:11.110Z,0.00
2019-02-27T02:13:14.825Z,0.00
2019-02-27T02:14:11.088Z,0.00
2019-02-27T02:15:11.094Z,0.00
2019-02-27T02:16:11.068Z,0.00
2019-02-27T02:17:11.090Z,0.00
2019-02-27T02:18:11.913Z,0.00
2019-02-27T02:19:11.049Z,0.00
2019-02-27T02:20:11.027Z,0.00
2019-02-27T02:21:11.019Z,0.00
2019-02-27T02:22:11.006Z,0.00
2019-02-27T02:23:13.972Z,0.00
2019-02-27T02:24:10.989Z,0.00
2019-02-27T02:25:10.990Z,0.00
2019-02-27T02:26:10.964Z,0.00
2019-02-27T02:27:10.962Z,0.00
2019-02-27T02:28:12.091Z,0.00
2019-02-27T02:29:10.954Z,0.00
2019-02-27T02:30:10.941Z,0.00
2019-02-27T02:31:10.924Z,0.00
2019-02-27T02:32:16.851Z,0.00
2019-02-27T02:33:11.890Z,0.00
2019-02-27T02:34:10.881Z,0.00
2019-02-27T02:35:14.823Z,0.00
2019-02-27T02:36:10.859Z,0.00
2019-02-27T02:37:10.851Z,0.00
2019-02-27T02:38:12.577Z,0.00
2019-02-27T02:39:10.826Z,0.00
2019-02-27T02:40:10.822Z,0.00
2019-02-27T02:41:10.817Z,0.00
2019-02-27T02:42:10.795Z,0.00
2019-02-27T02:43:10.806Z,0.00
2019-02-27T02:44:10.775Z,0.00
2019-02-27T02:45:10.762Z,0.00
2019-02-27T02:46:10.751Z,0.00
2019-02-27T02:47:10.769Z,0.00
2019-02-27T02:48:10.737Z,0.00
2019-02-27T02:49:10.721Z,0.00
2019-02-27T02:50:10.708Z,0.00
2019-02-27T02:51:10.717Z,0.00
2019-02-27T02:52:10.687Z,0.00
2019-02-27T02:53:10.691Z,0.00
2019-02-27T02:54:10.665Z,0.00
2019-02-27T02:55:12.497Z,0.00
2019-02-27T02:56:10.644Z,0.00
2019-02-27T02:57:10.635Z,0.00
2019-02-27T02:58:11.330Z,0.00
2019-02-27T02:59:10.627Z,0.00
2019-02-27T03:00:10.599Z,0.00
2019-02-27T03:01:14.181Z,0.00
2019-02-27T03:02:10.579Z,0.00
2019-02-27T03:03:10.567Z,0.00
2019-02-27T03:04:12.801Z,0.00
2019-02-27T03:05:10.557Z,0.00
2019-02-27T03:06:10.538Z,0.00
2019-02-27T03:07:11.066Z,0.00
2019-02-27T03:08:10.514Z,0.00
2019-02-27T03:09:10.508Z,0.00
2019-02-27T03:10:10.493Z,0.00
2019-02-27T03:11:10.492Z,0.00
2019-02-27T03:12:10.471Z,0.00
2019-02-27T03:13:10.466Z,0.00
2019-02-27T03:14:17.247Z,0.00
2019-02-27T03:15:11.436Z,0.00
2019-02-27T03:16:10.429Z,0.00
2019-02-27T03:17:10.511Z,0.00
2019-02-27T03:18:10.405Z,0.00
2019-02-27T03:19:10.402Z,0.00
2019-02-27T03:20:10.384Z,0.00
2019-02-27T03:21:10.375Z,0.00
2019-02-27T03:22:10.365Z,0.00
2019-02-27T03:23:15.311Z,0.00
2019-02-27T03:24:11.342Z,0.00
2019-02-27T03:25:10.330Z,0.00
2019-02-27T03:26:16.496Z,0.00
2019-02-27T03:27:11.311Z,0.00
2019-02-27T03:28:10.299Z,0.00
2019-02-27T03:29:15.561Z,0.00
2019-02-27T03:30:11.285Z,0.00
2019-02-27T03:31:16.204Z,0.00
2019-02-27T03:32:11.261Z,0.00
2019-02-27T03:33:10.255Z,0.00
2019-02-27T03:34:10.246Z,0.00
2019-02-27T03:35:10.271Z,0.00
2019-02-27T03:36:10.225Z,0.00
2019-02-27T03:37:13.183Z,0.00
2019-02-27T03:38:10.191Z,0.00
2019-02-27T03:39:10.181Z,0.00
2019-02-27T03:40:11.764Z,0.00
2019-02-27T03:41:10.170Z,0.00
2019-02-27T03:42:10.148Z,0.00
2019-02-27T03:43:11.363Z,0.00
2019-02-27T03:44:10.128Z,0.00
2019-02-27T03:45:10.120Z,0.00
2019-02-27T03:46:10.112Z,0.00
2019-02-27T03:47:15.611Z,0.00
2019-02-27T03:48:11.083Z,0.00
2019-02-27T03:49:10.073Z,0.00
2019-02-27T03:50:14.660Z,0.00
2019-02-27T03:51:11.050Z,0.00
2019-02-27T03:52:10.040Z,0.00
2019-02-27T03:53:11.079Z,0.00
2019-02-27T03:54:10.019Z,0.00
2019-02-27T03:55:10.008Z,0.00
2019-02-27T03:56:10.124Z,0.00
2019-02-27T03:57:09.987Z,0.00
2019-02-27T03:58:09.980Z,0.00
2019-02-27T03:59:09.976Z,0.00
2019-02-27T04:00:09.954Z,0.00
2019-02-27T04:01:09.944Z,0.00
2019-02-27T04:02:09.932Z,0.00
2019-02-27T04:03:09.924Z,0.00
2019-02-27T04:04:09.937Z,0.00
2019-02-27T04:05:09.910Z,0.00
2019-02-27T04:06:09.890Z,0.00
2019-02-27T04:07:09.881Z,0.00
2019-02-27T04:08:09.869Z,0.00
2019-02-27T04:09:09.870Z,0.00
2019-02-27T04:10:09.849Z,0.00
2019-02-27T04:11:09.846Z,0.00
2019-02-27T04:12:09.825Z,0.00
2019-02-27T04:13:09.815Z,0.00
2019-02-27T04:14:09.803Z,0.00
2019-02-27T04:15:09.792Z,0.00
2019-02-27T04:16:09.782Z,0.00
2019-02-27T04:17:09.788Z,0.00
2019-02-27T04:18:09.761Z,0.00
2019-02-27T04:19:09.750Z,0.00
2019-02-27T04:20:14.626Z,0.00
2019-02-27T04:21:10.727Z,0.00
2019-02-27T04:22:09.746Z,0.00
2019-02-27T04:23:12.494Z,0.00
2019-02-27T04:24:09.696Z,0.00
2019-02-27T04:25:09.686Z,0.00
2019-02-27T04:26:09.679Z,0.00
2019-02-27T04:27:09.665Z,0.00
2019-02-27T04:28:09.662Z,0.00
2019-02-27T04:29:09.658Z,0.00
2019-02-27T04:30:14.679Z,0.00
2019-02-27T04:31:10.626Z,0.00
2019-02-27T04:32:12.435Z,0.00
2019-02-27T04:33:09.601Z,0.00
2019-02-27T04:34:09.591Z,0.00
2019-02-27T04:35:09.595Z,0.00
2019-02-27T04:36:12.461Z,0.00
2019-02-27T04:37:09.558Z,0.00
2019-02-27T04:38:09.547Z,0.00
2019-02-27T04:39:09.537Z,0.00
2019-02-27T04:40:11.236Z,0.00
2019-02-27T04:41:09.526Z,0.00
2019-02-27T04:42:09.504Z,0.00
2019-02-27T04:43:09.494Z,0.00
2019-02-27T04:44:09.485Z,0.00
2019-02-27T04:45:09.876Z,0.00
2019-02-27T04:46:09.463Z,0.00
2019-02-27T04:47:09.462Z,0.00
2019-02-27T04:48:09.443Z,0.00
2019-02-27T04:49:09.437Z,0.00
2019-02-27T04:50:11.284Z,0.00
2019-02-27T04:51:09.409Z,0.00
2019-02-27T04:52:09.400Z,0.00
2019-02-27T04:53:09.398Z,0.00
2019-02-27T04:54:09.376Z,0.00
2019-02-27T04:55:09.365Z,0.00
2019-02-27T04:56:09.356Z,0.00
2019-02-27T04:57:09.344Z,0.00
2019-02-27T04:58:09.675Z,0.00
2019-02-27T04:59:09.336Z,0.00
2019-02-27T05:00:09.318Z,0.00
2019-02-27T05:01:09.308Z,0.00
2019-02-27T05:02:09.291Z,0.00
2019-02-27T05:03:09.279Z,0.00
2019-02-27T05:04:09.271Z,0.00
2019-02-27T05:05:09.332Z,0.00
2019-02-27T05:06:09.247Z,0.00
2019-02-27T05:07:09.237Z,0.00
2019-02-27T05:08:09.227Z,0.00
2019-02-27T05:09:09.218Z,0.00
2019-02-27T05:10:09.209Z,0.00
2019-02-27T05:11:09.212Z,0.00
2019-02-27T05:12:09.183Z,0.00
2019-02-27T05:13:09.172Z,0.00
2019-02-27T05:14:09.163Z,0.00
2019-02-27T05:15:09.150Z,0.00
2019-02-27T05:16:09.139Z,0.00
2019-02-27T05:17:09.140Z,0.00
2019-02-27T05:18:09.118Z,0.00
2019-02-27T05:19:09.113Z,0.00
2019-02-27T05:20:11.837Z,0.00
2019-02-27T05:21:09.089Z,0.00
2019-02-27T05:22:09.077Z,0.00
2019-02-27T05:23:09.076Z,0.00
2019-02-27T05:24:09.055Z,0.00
2019-02-27T05:25:09.045Z,0.00
2019-02-27T05:26:09.034Z,0.00
2019-02-27T05:27:09.023Z,0.00
2019-02-27T05:28:09.013Z,0.00
2019-02-27T05:29:09.013Z,0.00
2019-02-27T05:30:12.035Z,0.00
2019-02-27T05:31:08.983Z,0.00
2019-02-27T05:32:08.972Z,0.00
2019-02-27T05:33:08.963Z,0.00
2019-02-27T05:34:12.467Z,0.00
2019-02-27T05:35:08.952Z,0.00
2019-02-27T05:36:08.937Z,0.00
2019-02-27T05:37:08.919Z,0.00
2019-02-27T05:38:08.908Z,0.00
2019-02-27T05:39:08.896Z,0.00
2019-02-27T05:40:08.890Z,0.00
2019-02-27T05:41:08.888Z,0.00
2019-02-27T05:42:08.864Z,0.00
2019-02-27T05:43:13.160Z,0.00
2019-02-27T05:44:08.843Z,0.00
2019-02-27T05:45:08.833Z,0.00
2019-02-27T05:46:08.822Z,0.00
2019-02-27T05:47:11.091Z,0.00
2019-02-27T05:48:08.800Z,0.00
2019-02-27T05:49:08.789Z,0.00
2019-02-27T05:50:08.796Z,0.00
2019-02-27T05:51:10.673Z,0.00
2019-02-27T05:52:08.757Z,0.00
2019-02-27T05:53:10.545Z,0.00
2019-02-27T05:54:08.736Z,0.00
2019-02-27T05:55:08.725Z,0.00
2019-02-27T05:56:08.715Z,0.00
2019-02-27T05:57:08.704Z,0.00
2019-02-27T05:58:08.693Z,0.00
2019-02-27T05:59:08.693Z,0.00
2019-02-27T06:00:08.678Z,0.00
2019-02-27T06:01:08.661Z,0.00
2019-02-27T06:02:10.783Z,0.00
2019-02-27T06:03:08.641Z,0.00
2019-02-27T06:04:08.632Z,0.00
2019-02-27T06:05:08.630Z,0.00
2019-02-27T06:06:11.501Z,0.00
2019-02-27T06:07:08.599Z,0.00
2019-02-27T06:08:08.590Z,0.00
2019-02-27T06:09:10.368Z,0.00
2019-02-27T06:10:08.651Z,5.62
2019-02-27T06:11:08.568Z,5.62
2019-02-27T06:12:09.847Z,5.62
2019-02-27T06:13:08.538Z,5.62
2019-02-27T06:14:08.527Z,5.62
2019-02-27T06:15:08.516Z,5.62
2019-02-27T06:16:09.272Z,5.62
2019-02-27T06:17:10.092Z,11.25
2019-02-27T06:18:08.483Z,11.25
2019-02-27T06:19:08.504Z,11.25
2019-02-27T06:20:08.582Z,11.25
2019-02-27T06:21:08.453Z,11.25
2019-02-27T06:22:08.440Z,16.88
2019-02-27T06:23:08.443Z,16.88
2019-02-27T06:24:11.666Z,16.88
2019-02-27T06:25:08.417Z,16.88
2019-02-27T06:26:08.403Z,22.50
2019-02-27T06:27:08.388Z,22.50
2019-02-27T06:28:08.378Z,22.50
2019-02-27T06:29:08.385Z,22.50
2019-02-27T06:30:08.363Z,28.12
2019-02-27T06:31:08.347Z,28.12
2019-02-27T06:32:11.872Z,28.12
2019-02-27T06:33:11.650Z,28.12
2019-02-27T06:34:08.317Z,33.75
2019-02-27T06:35:08.315Z,33.75
2019-02-27T06:36:08.599Z,33.75
2019-02-27T06:37:08.284Z,39.38
2019-02-27T06:38:08.272Z,39.38
2019-02-27T06:39:08.811Z,39.38
2019-02-27T06:40:08.251Z,45.00
2019-02-27T06:41:08.251Z,45.00
2019-02-27T06:42:08.294Z,45.00
2019-02-27T06:43:08.219Z,45.00
2019-02-27T06:44:08.208Z,50.62
2019-02-27T06:45:10.258Z,50.62
2019-02-27T06:46:08.187Z,50.62
2019-02-27T06:47:08.187Z,56.25
2019-02-27T06:48:10.244Z,56.25
2019-02-27T06:49:08.157Z,61.88
2019-02-27T06:50:08.144Z,61.88
2019-02-27T06:51:08.135Z,61.88
2019-02-27T06:52:09.282Z,67.50
2019-02-27T06:53:08.125Z,67.50
2019-02-27T06:54:08.102Z,73.12
2019-02-27T06:55:08.091Z,73.12
2019-02-27T06:56:08.090Z,78.75
2019-02-27T06:57:08.421Z,78.75
2019-02-27T06:58:08.058Z,84.38
2019-02-27T06:59:08.057Z,90.00
2019-02-27T07:00:08.038Z,90.00
2019-02-27T07:01:09.710Z,101.25
2019-02-27T07:02:08.016Z,101.25
2019-02-27T07:03:08.006Z,101.25
2019-02-27T07:04:08.279Z,101.25
2019-02-27T07:05:07.998Z,112.50
2019-02-27T07:06:07.972Z,118.12
2019-02-27T07:07:07.961Z,123.75
2019-02-27T07:08:07.951Z,129.38
2019-02-27T07:09:11.341Z,135.00
2019-02-27T07:10:07.930Z,140.62
2019-02-27T07:11:10.950Z,140.62
2019-02-27T07:12:07.909Z,157.50
2019-02-27T07:13:07.900Z,225.00
2019-02-27T07:14:07.887Z,331.88
2019-02-27T07:15:10.314Z,421.88
2019-02-27T07:16:07.866Z,478.12
2019-02-27T07:17:07.866Z,551.25
2019-02-27T07:18:07.846Z,641.25
2019-02-27T07:19:07.834Z,781.88
2019-02-27T07:20:08.847Z,1018.12
2019-02-27T07:21:07.814Z,1282.50
2019-02-27T07:22:09.310Z,1417.50
2019-02-27T07:23:07.806Z,1372.50
2019-02-27T07:24:07.783Z,1243.12
2019-02-27T07:25:07.771Z,1141.88
2019-02-27T07:26:07.760Z,1051.88
2019-02-27T07:27:07.748Z,961.88
2019-02-27T07:28:09.165Z,871.88
2019-02-27T07:29:07.739Z,877.50
2019-02-27T07:30:08.117Z,900.00
2019-02-27T07:31:07.706Z,888.75
2019-02-27T07:32:07.695Z,894.38
2019-02-27T07:33:07.683Z,916.88
2019-02-27T07:34:07.673Z,916.88
2019-02-27T07:35:07.675Z,883.12
2019-02-27T07:36:07.653Z,855.00
2019-02-27T07:37:07.641Z,815.62
2019-02-27T07:38:07.630Z,793.12
2019-02-27T07:39:07.636Z,776.25
2019-02-27T07:40:08.625Z,753.75
2019-02-27T07:41:07.633Z,731.25
2019-02-27T07:42:07.588Z,720.00
2019-02-27T07:43:07.576Z,714.38
2019-02-27T07:44:07.565Z,720.00
2019-02-27T07:45:08.126Z,708.75
2019-02-27T07:46:07.544Z,697.50
2019-02-27T07:47:07.547Z,686.25
2019-02-27T07:48:07.522Z,708.75
2019-02-27T07:49:07.511Z,691.88
2019-02-27T07:50:08.838Z,691.88
2019-02-27T07:51:07.490Z,686.25
2019-02-27T07:52:07.479Z,663.75
2019-02-27T07:53:07.482Z,630.00
2019-02-27T07:54:07.457Z,630.00
2019-02-27T07:55:18.511Z,641.25
2019-02-27T07:56:08.440Z,658.12
2019-02-27T07:57:07.425Z,652.50
2019-02-27T07:58:07.415Z,635.62
2019-02-27T07:59:07.414Z,635.62
2019-02-27T08:00:07.392Z,652.50
2019-02-27T08:01:07.382Z,669.38
2019-02-27T08:02:07.370Z,680.62
2019-02-27T08:03:09.843Z,686.25
2019-02-27T08:04:07.372Z,691.88
2019-02-27T08:05:07.360Z,680.62
2019-02-27T08:06:07.326Z,697.50
2019-02-27T08:07:09.974Z,720.00
2019-02-27T08:08:08.306Z,742.50
2019-02-27T08:09:07.295Z,731.25
2019-02-27T08:10:07.283Z,714.38
2019-02-27T08:11:07.289Z,691.88
2019-02-27T08:12:07.261Z,686.25
2019-02-27T08:13:07.251Z,714.38
2019-02-27T08:14:07.240Z,770.62
2019-02-27T08:15:07.229Z,821.25
2019-02-27T08:16:07.219Z,860.62
2019-02-27T08:17:17.199Z,860.62
2019-02-27T08:18:08.313Z,843.75
2019-02-27T08:19:08.921Z,871.88
2019-02-27T08:20:07.178Z,905.62
2019-02-27T08:21:07.167Z,967.50
2019-02-27T08:22:07.153Z,1074.38
2019-02-27T08:23:07.152Z,1203.75
2019-02-27T08:24:07.660Z,1231.88
2019-02-27T08:25:07.120Z,1215.00
2019-02-27T08:26:07.108Z,1310.62
2019-02-27T08:27:09.582Z,1479.38
2019-02-27T08:28:07.089Z,1569.38
2019-02-27T08:29:07.124Z,1445.62
2019-02-27T08:30:07.066Z,1192.50
2019-02-27T08:31:07.053Z,995.62
2019-02-27T08:32:07.044Z,888.75
2019-02-27T08:33:08.440Z,855.00
2019-02-27T08:34:07.021Z,888.75
2019-02-27T08:35:07.029Z,973.12
2019-02-27T08:36:07.008Z,1051.88
2019-02-27T08:37:06.989Z,1113.75
2019-02-27T08:38:06.979Z,1175.62
2019-02-27T08:39:06.968Z,1260.00
2019-02-27T08:40:06.957Z,1350.00
2019-02-27T08:41:06.958Z,1400.62
2019-02-27T08:42:06.936Z,1389.38
2019-02-27T08:43:06.925Z,1406.25
2019-02-27T08:44:06.915Z,1462.50
2019-02-27T08:45:06.907Z,1473.75
2019-02-27T08:46:06.892Z,1490.62
2019-02-27T08:47:07.797Z,1440.00
2019-02-27T08:48:06.871Z,1389.38
2019-02-27T08:49:06.860Z,1456.88
2019-02-27T08:50:06.854Z,1513.12
2019-02-27T08:51:08.754Z,1501.88
2019-02-27T08:52:08.421Z,1451.25
2019-02-27T08:53:06.827Z,1468.12
2019-02-27T08:54:06.805Z,1518.75
2019-02-27T08:55:06.794Z,1490.62
2019-02-27T08:56:06.783Z,1580.62
2019-02-27T08:57:06.772Z,1659.38
2019-02-27T08:58:07.285Z,1659.38
2019-02-27T08:59:06.761Z,1721.25
2019-02-27T09:00:06.740Z,1738.12
2019-02-27T09:01:06.730Z,1783.12
2019-02-27T09:02:06.717Z,1890.00
2019-02-27T09:03:06.708Z,1901.25
2019-02-27T09:04:11.465Z,1918.12
2019-02-27T09:05:07.702Z,1850.62
2019-02-27T09:06:06.676Z,1794.38
2019-02-27T09:07:06.662Z,1766.25
2019-02-27T09:08:07.361Z,1771.88
2019-02-27T09:09:07.968Z,1755.00
2019-02-27T09:10:06.629Z,1738.12
2019-02-27T09:11:06.914Z,1760.62
2019-02-27T09:12:06.607Z,1816.88
2019-02-27T09:13:06.604Z,1788.75
2019-02-27T09:14:06.586Z,1738.12
2019-02-27T09:15:06.574Z,1687.50
2019-02-27T09:16:06.563Z,1794.38
2019-02-27T09:17:06.561Z,1828.12
2019-02-27T09:18:06.541Z,1845.00
2019-02-27T09:19:09.251Z,1901.25
2019-02-27T09:20:06.518Z,1861.88
2019-02-27T09:21:06.514Z,1833.75
2019-02-27T09:22:06.496Z,1861.88
2019-02-27T09:23:06.496Z,1895.62
2019-02-27T09:24:06.475Z,1901.25
2019-02-27T09:25:06.465Z,1878.75
2019-02-27T09:26:06.455Z,1923.75
2019-02-27T09:27:06.443Z,1951.88
2019-02-27T09:28:09.205Z,1985.62
2019-02-27T09:29:06.433Z,2098.12
2019-02-27T09:30:06.412Z,2148.75
2019-02-27T09:31:06.401Z,2131.88
2019-02-27T09:32:06.390Z,2199.38
2019-02-27T09:33:06.381Z,2120.62
2019-02-27T09:34:06.494Z,2109.38
2019-02-27T09:35:06.370Z,2171.25
2019-02-27T09:36:08.014Z,2131.88
2019-02-27T09:37:06.336Z,2131.88
2019-02-27T09:38:06.326Z,2126.25
2019-02-27T09:39:06.315Z,2098.12
2019-02-27T09:40:06.311Z,2058.75
2019-02-27T09:41:06.305Z,2064.38
2019-02-27T09:42:06.284Z,2058.75
2019-02-27T09:43:06.381Z,1575.00
2019-02-27T09:44:06.265Z,849.38
2019-02-27T09:45:08.227Z,528.75
2019-02-27T09:46:06.319Z,438.75
2019-02-27T09:47:06.240Z,388.12
2019-02-27T09:48:06.220Z,354.38
2019-02-27T09:49:07.085Z,337.50
2019-02-27T09:50:06.198Z,326.25
2019-02-27T09:51:06.188Z,315.00
2019-02-27T09:52:06.176Z,309.38
2019-02-27T09:53:06.179Z,298.12
2019-02-27T09:54:08.069Z,292.50
2019-02-27T09:55:06.144Z,286.88
2019-02-27T09:56:06.133Z,281.25
2019-02-27T09:57:06.122Z,275.62
2019-02-27T09:58:10.073Z,275.62
2019-02-27T09:59:06.111Z,270.00
2019-02-27T10:00:06.090Z,264.38
2019-02-27T10:01:06.079Z,264.38
2019-02-27T10:02:08.758Z,258.75
2019-02-27T10:03:06.058Z,258.75
2019-02-27T10:04:06.052Z,253.12
2019-02-27T10:05:06.046Z,253.12
2019-02-27T10:06:08.746Z,253.12
2019-02-27T10:07:06.018Z,247.50
2019-02-27T10:08:07.485Z,247.50
2019-02-27T10:09:05.994Z,253.12
2019-02-27T10:10:10.200Z,241.88
2019-02-27T10:11:05.992Z,241.88
2019-02-27T10:12:05.961Z,241.88
2019-02-27T10:13:05.950Z,236.25
2019-02-27T10:14:05.940Z,236.25
2019-02-27T10:15:05.930Z,236.25
2019-02-27T10:16:05.920Z,230.62
2019-02-27T10:17:06.732Z,230.62
2019-02-27T10:18:05.897Z,230.62
2019-02-27T10:19:05.886Z,225.00
2019-02-27T10:20:05.876Z,225.00
2019-02-27T10:21:05.870Z,225.00
2019-02-27T10:22:05.854Z,225.00
2019-02-27T10:23:05.855Z,219.38
2019-02-27T10:24:05.836Z,213.75
2019-02-27T10:25:08.593Z,213.75
2019-02-27T10:26:05.813Z,213.75
2019-02-27T10:27:05.800Z,213.75
2019-02-27T10:28:05.790Z,213.75
2019-02-27T10:29:05.796Z,208.12
2019-02-27T10:30:11.450Z,208.12
2019-02-27T10:31:06.757Z,202.50
2019-02-27T10:32:05.749Z,202.50
2019-02-27T10:33:05.736Z,196.88
2019-02-27T10:34:05.725Z,196.88
2019-02-27T10:35:05.726Z,196.88
2019-02-27T10:36:05.704Z,191.25
2019-02-27T10:37:05.723Z,191.25
2019-02-27T10:38:05.683Z,191.25
2019-02-27T10:39:05.670Z,191.25
2019-02-27T10:40:05.659Z,191.25
2019-02-27T10:41:05.659Z,185.62
2019-02-27T10:42:05.638Z,185.62
2019-02-27T10:43:05.629Z,185.62
2019-02-27T10:44:05.617Z,185.62
2019-02-27T10:45:09.815Z,180.00
2019-02-27T10:46:05.593Z,180.00
2019-02-27T10:47:05.600Z,180.00
2019-02-27T10:48:05.572Z,180.00
2019-02-27T10:49:05.561Z,174.38
2019-02-27T10:50:05.549Z,174.38
2019-02-27T10:51:05.538Z,174.38
2019-02-27T10:52:05.539Z,168.75
2019-02-27T10:53:05.528Z,168.75
2019-02-27T10:54:05.605Z,168.75
2019-02-27T10:55:05.493Z,168.75
2019-02-27T10:56:05.487Z,163.12
2019-02-27T10:57:06.024Z,163.12
2019-02-27T10:58:07.561Z,163.12
2019-02-27T10:59:05.460Z,163.12
2019-02-27T11:00:05.439Z,163.12
2019-02-27T11:01:05.426Z,163.12
2019-02-27T11:02:05.418Z,157.50
2019-02-27T11:03:05.407Z,157.50
2019-02-27T11:04:05.395Z,157.50
2019-02-27T11:05:05.404Z,157.50
2019-02-27T11:06:05.379Z,151.88
2019-02-27T11:07:05.362Z,151.88
2019-02-27T11:08:05.353Z,151.88
2019-02-27T11:09:05.367Z,151.88
2019-02-27T11:10:05.331Z,151.88
2019-02-27T11:11:05.336Z,151.88
2019-02-27T11:12:05.313Z,151.88
2019-02-27T11:13:06.715Z,146.25
2019-02-27T11:14:05.289Z,146.25
2019-02-27T11:15:05.277Z,146.25
2019-02-27T11:16:05.266Z,146.25
2019-02-27T11:17:05.265Z,146.25
2019-02-27T11:18:05.928Z,146.25
2019-02-27T11:19:05.235Z,146.25
2019-02-27T11:20:05.229Z,146.25
2019-02-27T11:21:05.212Z,146.25
2019-02-27T11:22:05.206Z,146.25
2019-02-27T11:23:07.083Z,146.25
2019-02-27T11:24:05.180Z,146.25
2019-02-27T11:25:05.170Z,146.25
2019-02-27T11:26:05.158Z,146.25
2019-02-27T11:27:06.190Z,146.25
2019-02-27T11:28:05.141Z,146.25
2019-02-27T11:29:05.138Z,146.25
2019-02-27T11:30:05.116Z,146.25
2019-02-27T11:31:05.105Z,146.25
2019-02-27T11:32:05.096Z,146.25
2019-02-27T11:33:05.084Z,146.25
2019-02-27T11:34:07.838Z,146.25
2019-02-27T11:35:05.075Z,146.25
2019-02-27T11:36:05.667Z,146.25
2019-02-27T11:37:05.052Z,146.25
2019-02-27T11:38:05.033Z,146.25
2019-02-27T11:39:05.027Z,140.62
2019-02-27T11:40:05.416Z,140.62
2019-02-27T11:41:05.009Z,140.62
2019-02-27T11:42:04.989Z,140.62
2019-02-27T11:43:07.007Z,140.62
2019-02-27T11:44:04.968Z,140.62
2019-02-27T11:45:04.957Z,140.62
2019-02-27T11:46:04.948Z,140.62
2019-02-27T11:47:04.946Z,140.62
2019-02-27T11:48:04.925Z,140.62
2019-02-27T11:49:04.914Z,140.62
2019-02-27T11:50:04.903Z,140.62
2019-02-27T11:51:04.893Z,140.62
2019-02-27T11:52:04.882Z,140.62
2019-02-27T11:53:04.885Z,140.62
2019-02-27T11:54:04.861Z,140.62
2019-02-27T11:55:04.850Z,140.62
2019-02-27T11:56:04.843Z,140.62
2019-02-27T11:57:04.828Z,135.00
2019-02-27T11:58:05.593Z,135.00
2019-02-27T11:59:04.819Z,135.00
2019-02-27T12:00:04.799Z,135.00
2019-02-27T12:01:04.786Z,135.00
2019-02-27T12:02:04.776Z,135.00
2019-02-27T12:03:04.770Z,135.00
2019-02-27T12:04:04.754Z,135.00
2019-02-27T12:05:04.753Z,135.00
2019-02-27T12:06:05.358Z,135.00
2019-02-27T12:07:04.723Z,135.00
2019-02-27T12:08:04.711Z,135.00
2019-02-27T12:09:04.707Z,135.00
2019-02-27T12:10:06.604Z,135.00
2019-02-27T12:11:04.690Z,135.00
2019-02-27T12:12:04.670Z,135.00
2019-02-27T12:13:04.658Z,135.00
2019-02-27T12:14:06.533Z,135.00
2019-02-27T12:15:06.772Z,135.00
2019-02-27T12:16:04.626Z,135.00
2019-02-27T12:17:04.626Z,135.00
2019-02-27T12:18:04.605Z,135.00
2019-02-27T12:19:06.420Z,135.00
2019-02-27T12:20:04.586Z,135.00
2019-02-27T12:21:04.572Z,135.00
2019-02-27T12:22:04.561Z,135.00
2019-02-27T12:23:04.569Z,135.00
2019-02-27T12:24:05.451Z,135.00
2019-02-27T12:25:04.528Z,135.00
2019-02-27T12:26:04.517Z,135.00
2019-02-27T12:27:04.508Z,135.00
2019-02-27T12:28:04.506Z,135.00
2019-02-27T12:29:04.494Z,135.00
2019-02-27T12:30:04.473Z,135.00
2019-02-27T12:31:04.461Z,135.00
2019-02-27T12:32:06.117Z,135.00
2019-02-27T12:33:04.439Z,135.00
2019-02-27T12:34:04.428Z,135.00
2019-02-27T12:35:04.428Z,135.00
2019-02-27T12:36:04.407Z,135.00
2019-02-27T12:37:04.395Z,129.38
2019-02-27T12:38:07.318Z,129.38
2019-02-27T12:39:04.372Z,129.38
2019-02-27T12:40:04.361Z,129.38
2019-02-27T12:41:04.363Z,129.38
2019-02-27T12:42:06.966Z,129.38
2019-02-27T12:43:04.330Z,129.38
2019-02-27T12:44:04.317Z,129.38
2019-02-27T12:45:04.309Z,129.38
2019-02-27T12:46:04.297Z,129.38
2019-02-27T12:47:05.581Z,129.38
2019-02-27T12:48:04.278Z,129.38
2019-02-27T12:49:04.265Z,129.38
2019-02-27T12:50:04.254Z,129.38
2019-02-27T12:51:04.428Z,129.38
2019-02-27T12:52:04.232Z,129.38
2019-02-27T12:53:04.232Z,129.38
2019-02-27T12:54:04.210Z,129.38
2019-02-27T12:55:04.199Z,129.38
2019-02-27T12:56:04.191Z,129.38
2019-02-27T12:57:04.181Z,129.38
2019-02-27T12:58:04.174Z,129.38
2019-02-27T12:59:04.172Z,129.38
2019-02-27T13:00:05.771Z,129.38
2019-02-27T13:01:04.135Z,129.38
2019-02-27T13:02:08.247Z,129.38
2019-02-27T13:03:08.399Z,129.38
2019-02-27T13:04:05.116Z,129.38
2019-02-27T13:05:04.094Z,129.38
2019-02-27T13:06:04.085Z,129.38
2019-02-27T13:07:04.071Z,129.38
2019-02-27T13:08:04.060Z,129.38
2019-02-27T13:09:04.051Z,123.75
2019-02-27T13:10:04.048Z,123.75
2019-02-27T13:11:05.247Z,123.75
2019-02-27T13:12:04.016Z,123.75
2019-02-27T13:13:04.007Z,123.75
2019-02-27T13:14:03.995Z,123.75
2019-02-27T13:15:06.621Z,123.75
2019-02-27T13:16:03.984Z,123.75
2019-02-27T13:17:03.966Z,123.75
2019-02-27T13:18:03.952Z,123.75